createdAt,value
2023-04-22T00:00:46.842Z,12.20
2023-04-22T00:03:18.636Z,12.10
2023-04-22T00:05:50.228Z,12.00
2023-04-22T00:08:23.811Z,11.90
2023-04-22T00:10:54.701Z,11.90
2023-04-22T00:13:25.532Z,12.00
2023-04-22T00:15:57.126Z,11.90
2023-04-22T00:18:28.956Z,11.70
2023-04-22T00:21:00.627Z,11.80
2023-04-22T00:23:35.156Z,11.60
2023-04-22T00:26:06.731Z,11.70
2023-04-22T00:28:40.362Z,11.80
2023-04-22T00:31:18.814Z,12.20
2023-04-22T00:33:50.532Z,12.50
2023-04-22T00:36:22.238Z,12.60
2023-04-22T00:38:55.316Z,12.60
2023-04-22T00:41:27.066Z,12.60
2023-04-22T00:43:58.615Z,12.50
2023-04-22T00:46:30.401Z,12.10
2023-04-22T00:49:01.924Z,12.00
2023-04-22T00:51:33.370Z,12.00
2023-04-22T00:54:07.568Z,12.10
2023-04-22T00:56:40.357Z,12.00
2023-04-22T00:59:13.312Z,12.10
2023-04-22T01:01:45.274Z,12.30
2023-04-22T01:04:16.749Z,12.40
2023-04-22T01:06:48.762Z,12.30
2023-04-22T01:09:24.074Z,12.20
2023-04-22T01:11:56.316Z,12.30
2023-04-22T01:14:28.639Z,12.20
2023-04-22T01:17:00.647Z,12.20
2023-04-22T01:19:33.981Z,12.10
2023-04-22T01:22:05.958Z,11.90
2023-04-22T01:24:39.623Z,11.60
2023-04-22T01:27:11.192Z,11.50
2023-04-22T01:29:42.411Z,11.50
2023-04-22T01:32:14.415Z,11.40
2023-04-22T01:34:45.628Z,11.40
2023-04-22T01:37:16.730Z,11.40
2023-04-22T01:39:50.921Z,11.30
2023-04-22T01:42:22.677Z,11.30
2023-04-22T01:44:53.908Z,11.30
2023-04-22T01:47:24.854Z,11.40
2023-04-22T01:49:55.981Z,11.20
2023-04-22T01:52:27.198Z,11.20
2023-04-22T01:55:01.001Z,11.20
2023-04-22T01:57:32.408Z,11.10
2023-04-22T02:00:04.277Z,11.00
2023-04-22T02:02:35.780Z,11.00
2023-04-22T02:05:08.352Z,10.90
2023-04-22T02:07:40.191Z,10.90
2023-04-22T02:10:14.756Z,11.00
2023-04-22T02:12:47.263Z,11.10
2023-04-22T02:15:18.992Z,11.00
2023-04-22T02:17:50.442Z,11.00
2023-04-22T02:20:21.988Z,10.90
2023-04-22T02:22:53.783Z,10.90
2023-04-22T02:25:27.820Z,11.00
2023-04-22T02:27:58.744Z,11.10
2023-04-22T02:30:30.778Z,10.90
2023-04-22T02:33:02.745Z,10.80
2023-04-22T02:35:34.090Z,10.80
2023-04-22T02:38:05.190Z,10.80
2023-04-22T02:40:38.176Z,10.80
2023-04-22T02:43:09.652Z,10.80
2023-04-22T02:45:41.748Z,10.80
2023-04-22T02:48:12.971Z,10.80
2023-04-22T02:50:44.170Z,10.70
2023-04-22T02:53:15.514Z,10.70
2023-04-22T02:55:49.287Z,10.60
2023-04-22T02:58:20.996Z,10.50
2023-04-22T03:00:52.403Z,10.60
2023-04-22T03:03:24.052Z,10.50
2023-04-22T03:05:55.236Z,10.40
2023-04-22T03:08:26.158Z,10.40
2023-04-22T03:10:59.119Z,10.40
2023-04-22T03:13:30.714Z,10.30
2023-04-22T03:16:01.781Z,10.30
2023-04-22T03:18:33.045Z,10.30
2023-04-22T03:21:05.536Z,10.20
2023-04-22T03:23:37.304Z,10.10
2023-04-22T03:26:10.723Z,10.00
2023-04-22T03:28:41.652Z,10.00
2023-04-22T03:31:13.207Z,9.90
2023-04-22T03:33:44.647Z,9.90
2023-04-22T03:36:15.723Z,9.70
2023-04-22T03:38:47.291Z,9.70
2023-04-22T03:41:20.851Z,9.60
2023-04-22T03:43:52.168Z,9.60
2023-04-22T03:46:23.568Z,9.60
2023-04-22T03:48:54.752Z,9.50
2023-04-22T03:51:25.622Z,9.40
2023-04-22T03:53:56.649Z,9.40
2023-04-22T03:56:30.722Z,9.40
2023-04-22T03:59:02.275Z,9.40
2023-04-22T04:01:33.790Z,9.40
2023-04-22T04:04:05.847Z,9.40
2023-04-22T04:06:37.018Z,9.30
2023-04-22T04:09:08.915Z,9.30
2023-04-22T04:11:42.542Z,9.30
2023-04-22T04:14:14.233Z,9.30
2023-04-22T04:16:45.460Z,9.30
2023-04-22T04:19:16.681Z,9.30
2023-04-22T04:21:48.130Z,9.40
2023-04-22T04:24:20.062Z,9.30
2023-04-22T04:26:54.675Z,9.30
2023-04-22T04:29:26.610Z,9.30
2023-04-22T04:31:58.303Z,9.30
2023-04-22T04:34:29.499Z,9.30
2023-04-22T04:37:02.003Z,9.20
2023-04-22T04:39:34.059Z,9.20
2023-04-22T04:42:07.409Z,9.20
2023-04-22T04:44:38.863Z,9.20
2023-04-22T04:47:10.558Z,9.20
2023-04-22T04:49:42.465Z,9.10
2023-04-22T04:52:14.426Z,9.10
2023-04-22T04:54:45.993Z,9.10
2023-04-22T04:57:18.882Z,9.10
2023-04-22T04:59:50.116Z,9.10
2023-04-22T05:02:21.410Z,9.10
2023-04-22T05:04:53.254Z,9.10
2023-04-22T05:07:24.673Z,9.10
2023-04-22T05:09:55.921Z,9.10
2023-04-22T05:12:29.298Z,9.10
2023-04-22T05:15:00.779Z,9.10
2023-04-22T05:17:32.206Z,9.10
2023-04-22T05:20:03.276Z,9.20
2023-04-22T05:22:35.070Z,9.20
2023-04-22T05:25:06.311Z,9.30
2023-04-22T05:27:39.710Z,9.20
2023-04-22T05:30:12.170Z,9.20
2023-04-22T05:32:43.867Z,9.30
2023-04-22T05:35:15.607Z,9.20
2023-04-22T05:37:46.722Z,9.20
2023-04-22T05:40:17.862Z,9.20
2023-04-22T05:42:51.630Z,9.20
2023-04-22T05:45:24.060Z,9.20
2023-04-22T05:47:55.471Z,9.10
2023-04-22T05:50:26.906Z,9.10
2023-04-22T05:52:58.086Z,9.00
2023-04-22T05:55:29.724Z,9.10
2023-04-22T05:58:03.323Z,9.00
2023-04-22T06:00:34.500Z,9.00
2023-04-22T06:03:06.034Z,9.00
2023-04-22T06:05:37.460Z,8.90
2023-04-22T06:08:09.236Z,8.90
2023-04-22T06:10:40.560Z,8.90
2023-04-22T06:13:13.601Z,8.90
2023-04-22T06:15:45.057Z,8.90
2023-04-22T06:18:16.231Z,8.90
2023-04-22T06:20:47.207Z,8.90
2023-04-22T06:23:18.458Z,8.90
2023-04-22T06:25:49.858Z,8.90
2023-04-22T06:28:23.101Z,8.90
2023-04-22T06:30:54.286Z,8.90
2023-04-22T06:33:25.752Z,8.90
2023-04-22T06:35:57.335Z,8.90
2023-04-22T06:38:29.006Z,8.80
2023-04-22T06:41:00.638Z,8.80
2023-04-22T06:43:34.051Z,8.80
2023-04-22T06:46:05.831Z,8.80
2023-04-22T06:48:37.521Z,8.80
2023-04-22T06:51:08.799Z,8.70
2023-04-22T06:53:40.041Z,8.70
2023-04-22T06:56:11.647Z,8.80
2023-04-22T06:58:44.816Z,8.70
2023-04-22T07:01:16.112Z,8.70
2023-04-22T07:03:48.100Z,8.70
2023-04-22T07:06:19.520Z,8.70
2023-04-22T07:08:50.397Z,8.70
2023-04-22T07:11:22.503Z,8.70
2023-04-22T07:13:55.587Z,8.60
2023-04-22T07:16:27.205Z,8.60
2023-04-22T07:19:00.274Z,8.60
2023-04-22T07:21:32.699Z,8.60
2023-04-22T07:24:03.893Z,8.60
2023-04-22T07:26:35.273Z,8.50
2023-04-22T07:29:08.702Z,8.50
2023-04-22T07:31:40.995Z,8.50
2023-04-22T07:34:12.793Z,8.50
2023-04-22T07:36:44.435Z,8.50
2023-04-22T07:39:16.391Z,8.40
2023-04-22T07:41:47.956Z,8.40
2023-04-22T07:44:22.703Z,8.40
2023-04-22T07:46:54.014Z,8.40
2023-04-22T07:49:25.359Z,8.30
2023-04-22T07:51:56.224Z,8.30
2023-04-22T07:54:27.806Z,8.30
2023-04-22T07:56:59.754Z,8.30
2023-04-22T07:59:32.239Z,8.30
2023-04-22T08:02:04.309Z,8.30
2023-04-22T08:04:36.010Z,8.20
2023-04-22T08:07:30.458Z,8.20
2023-04-22T08:09:58.774Z,8.20
2023-04-22T08:12:30.134Z,8.20
2023-04-22T08:15:02.658Z,8.10
2023-04-22T08:17:34.175Z,8.10
2023-04-22T08:20:07.935Z,8.10
2023-04-22T08:22:39.820Z,8.10
2023-04-22T08:25:12.225Z,8.00
2023-04-22T08:27:43.281Z,8.00
2023-04-22T08:30:16.974Z,8.00
2023-04-22T08:32:48.426Z,8.00
2023-04-22T08:35:19.303Z,8.00
2023-04-22T08:37:50.333Z,7.90
2023-04-22T08:40:21.889Z,7.90
2023-04-22T08:42:55.030Z,7.90
2023-04-22T08:45:27.950Z,7.90
2023-04-22T08:48:00.642Z,7.90
2023-04-22T08:50:33.786Z,7.90
2023-04-22T08:53:04.599Z,7.90
2023-04-22T08:55:37.096Z,7.90
2023-04-22T08:58:08.829Z,7.90
2023-04-22T09:00:46.483Z,7.90
2023-04-22T09:03:19.038Z,7.90
2023-04-22T09:05:52.281Z,7.90
2023-04-22T09:08:23.813Z,7.90
2023-04-22T09:10:55.305Z,7.90
2023-04-22T09:13:27.991Z,8.00
2023-04-22T09:16:00.864Z,8.00
2023-04-22T09:18:32.136Z,8.00
2023-04-22T09:21:03.272Z,7.90
2023-04-22T09:23:35.041Z,8.00
2023-04-22T09:26:07.539Z,8.00
2023-04-22T09:28:40.384Z,8.00
2023-04-22T09:31:18.477Z,8.00
2023-04-22T09:33:57.577Z,8.00
2023-04-22T09:36:30.685Z,8.00
2023-04-22T09:39:03.195Z,8.00
2023-04-22T09:41:35.740Z,8.00
2023-04-22T09:44:08.314Z,8.00
2023-04-22T09:46:44.761Z,8.00
2023-04-22T09:49:19.067Z,8.00
2023-04-22T09:51:50.246Z,8.00
2023-04-22T09:54:21.663Z,8.00
2023-04-22T09:56:53.965Z,8.10
2023-04-22T09:59:26.399Z,8.10
2023-04-22T10:02:01.894Z,8.00
2023-04-22T10:04:33.970Z,8.00
2023-04-22T10:07:05.521Z,7.90
2023-04-22T10:09:38.078Z,7.90
2023-04-22T10:12:09.902Z,7.90
2023-04-22T10:14:41.320Z,7.90
2023-04-22T10:17:15.946Z,7.90
2023-04-22T10:19:49.504Z,7.90
2023-04-22T10:22:20.780Z,7.90
2023-04-22T10:24:56.260Z,7.90
2023-04-22T10:27:27.969Z,7.90
2023-04-22T10:30:00.517Z,7.90
2023-04-22T10:32:34.049Z,8.00
2023-04-22T10:35:13.890Z,8.00
2023-04-22T10:37:49.808Z,7.90
2023-04-22T10:40:23.772Z,7.90
2023-04-22T10:42:57.305Z,8.00
2023-04-22T10:45:28.929Z,8.00
2023-04-22T10:48:07.080Z,8.00
2023-04-22T10:50:39.217Z,8.00
2023-04-22T10:53:41.594Z,7.90
2023-04-22T10:56:21.348Z,7.90
2023-04-22T10:58:54.077Z,8.00
2023-04-22T11:01:25.260Z,8.00
2023-04-22T11:04:18.640Z,8.00
2023-04-22T11:06:50.197Z,8.10
2023-04-22T11:09:22.468Z,8.00
2023-04-22T11:11:54.295Z,8.00
2023-04-22T11:14:25.361Z,8.10
2023-04-22T11:16:57.202Z,8.10
2023-04-22T11:19:32.087Z,8.00
2023-04-22T11:22:03.611Z,7.90
2023-04-22T11:24:34.501Z,8.00
2023-04-22T11:27:05.606Z,7.90
2023-04-22T11:29:37.226Z,8.00
2023-04-22T11:32:08.870Z,8.00
2023-04-22T11:34:41.999Z,7.90
2023-04-22T11:37:13.677Z,7.90
2023-04-22T11:40:05.196Z,8.00
2023-04-22T11:42:38.054Z,8.00
2023-04-22T11:45:10.968Z,8.00
2023-04-22T11:47:42.781Z,8.00
2023-04-22T11:50:17.141Z,8.00
2023-04-22T11:52:50.467Z,7.90
2023-04-22T11:55:24.158Z,7.90
2023-04-22T11:57:59.886Z,7.90
2023-04-22T12:00:35.790Z,8.00
2023-04-22T12:03:08.976Z,8.00
2023-04-22T12:05:43.863Z,8.00
2023-04-22T12:08:16.233Z,8.00
2023-04-22T12:10:50.086Z,8.00
2023-04-22T12:13:25.514Z,7.90
2023-04-22T12:15:59.133Z,8.00
2023-04-22T12:18:34.549Z,8.00
2023-04-22T12:21:13.358Z,7.90
2023-04-22T12:23:48.728Z,7.90
2023-04-22T12:26:20.461Z,7.90
2023-04-22T12:28:51.717Z,8.00
2023-04-22T12:31:23.429Z,8.00
2023-04-22T12:33:54.700Z,8.00
2023-04-22T12:36:27.594Z,8.00
2023-04-22T12:38:58.787Z,7.90
2023-04-22T12:41:29.824Z,7.90
2023-04-22T12:44:01.569Z,7.90
2023-04-22T12:46:33.109Z,7.90
2023-04-22T12:49:04.699Z,7.90
2023-04-22T12:51:38.385Z,7.90
2023-04-22T12:54:10.119Z,7.90
2023-04-22T12:56:41.232Z,7.90
2023-04-22T12:59:12.545Z,8.00
2023-04-22T13:01:43.897Z,7.90
2023-04-22T13:04:15.191Z,7.90
2023-04-22T13:06:48.660Z,7.90
2023-04-22T13:09:19.904Z,8.00
2023-04-22T13:11:51.321Z,8.00
2023-04-22T13:14:22.374Z,8.00
2023-04-22T13:16:53.508Z,7.90
2023-04-22T13:19:26.664Z,8.00
2023-04-22T13:22:01.413Z,7.90
2023-04-22T13:24:32.613Z,7.90
2023-04-22T13:27:04.066Z,7.90
2023-04-22T13:29:34.962Z,7.80
2023-04-22T13:32:07.436Z,7.80
2023-04-22T13:34:38.503Z,7.80
2023-04-22T13:37:11.389Z,7.80
2023-04-22T13:39:42.837Z,7.80
2023-04-22T13:42:14.688Z,7.90
2023-04-22T13:44:46.228Z,7.80
2023-04-22T13:47:17.249Z,7.90
2023-04-22T13:49:47.992Z,8.00
2023-04-22T13:52:21.835Z,8.10
2023-04-22T13:54:53.538Z,8.10
2023-04-22T13:57:25.038Z,8.10
2023-04-22T13:59:56.116Z,8.10
2023-04-22T14:02:27.142Z,8.10
2023-04-22T14:05:00.269Z,8.10
2023-04-22T14:07:34.336Z,8.10
2023-04-22T14:10:05.171Z,8.10
2023-04-22T14:12:36.632Z,8.10
2023-04-22T14:15:11.622Z,8.10
2023-04-22T14:17:43.432Z,8.10
2023-04-22T14:20:14.866Z,8.20
2023-04-22T14:22:47.856Z,8.20
2023-04-22T14:25:19.389Z,8.30
2023-04-22T14:27:51.189Z,8.30
2023-04-22T14:30:22.703Z,8.30
2023-04-22T14:32:54.609Z,8.40
2023-04-22T14:35:25.915Z,8.40
2023-04-22T14:37:59.445Z,8.40
2023-04-22T14:40:31.222Z,8.50
2023-04-22T14:43:03.525Z,8.60
2023-04-22T14:45:35.573Z,8.50
2023-04-22T14:48:06.809Z,8.50
2023-04-22T14:50:38.284Z,8.40
2023-04-22T14:53:11.338Z,8.50
2023-04-22T14:55:42.631Z,8.60
2023-04-22T14:58:13.652Z,8.80
2023-04-22T15:00:45.083Z,8.80
2023-04-22T15:03:16.170Z,8.90
2023-04-22T15:05:50.259Z,9.00
2023-04-22T15:08:26.028Z,9.00
2023-04-22T15:10:56.851Z,9.20
2023-04-22T15:13:28.544Z,9.30
2023-04-22T15:16:00.714Z,9.40
2023-04-22T15:18:32.464Z,9.50
2023-04-22T15:21:04.179Z,9.40
2023-04-22T15:23:37.038Z,9.30
2023-04-22T15:26:08.852Z,9.40
2023-04-22T15:28:39.925Z,9.40
2023-04-22T15:31:11.007Z,9.40
2023-04-22T15:33:42.227Z,9.50
2023-04-22T15:36:14.011Z,9.60
2023-04-22T15:38:47.189Z,9.60
2023-04-22T15:41:19.165Z,9.70
2023-04-22T15:43:52.875Z,9.80
2023-04-22T15:46:24.492Z,9.90
2023-04-22T15:48:55.362Z,9.90
2023-04-22T15:51:27.422Z,10.00
2023-04-22T15:54:01.909Z,9.90
2023-04-22T15:56:33.913Z,10.10
2023-04-22T15:59:05.690Z,10.10
2023-04-22T16:01:38.705Z,10.20
2023-04-22T16:04:11.458Z,10.20
2023-04-22T16:06:42.917Z,10.20
2023-04-22T16:09:16.705Z,10.30
2023-04-22T16:11:47.800Z,10.30
2023-04-22T16:14:19.895Z,10.40
2023-04-22T16:16:51.735Z,10.50
2023-04-22T16:19:22.987Z,10.60
2023-04-22T16:21:55.052Z,10.60
2023-04-22T16:24:27.943Z,10.80
2023-04-22T16:26:59.337Z,11.00
2023-04-22T16:29:31.006Z,11.20
2023-04-22T16:32:02.569Z,11.20
2023-04-22T16:34:34.070Z,11.30
2023-04-22T16:37:05.258Z,11.40
2023-04-22T16:39:38.779Z,11.50
2023-04-22T16:42:10.007Z,11.60
2023-04-22T16:44:41.074Z,11.80
2023-04-22T16:47:12.055Z,11.80
2023-04-22T16:49:43.499Z,11.80
2023-04-22T16:52:15.423Z,12.00
2023-04-22T16:54:48.430Z,12.20
2023-04-22T16:57:19.762Z,12.30
2023-04-22T16:59:51.281Z,12.30
2023-04-22T17:02:22.400Z,12.30
2023-04-22T17:04:53.998Z,12.40
2023-04-22T17:07:25.172Z,12.50
2023-04-22T17:09:58.308Z,12.50
2023-04-22T17:12:30.281Z,12.50
2023-04-22T17:15:01.557Z,12.70
2023-04-22T17:17:33.607Z,12.90
2023-04-22T17:20:07.405Z,13.10
2023-04-22T17:22:38.766Z,13.40
2023-04-22T17:25:13.459Z,13.30
2023-04-22T17:27:44.912Z,13.20
2023-04-22T17:30:16.768Z,13.50
2023-04-22T17:32:48.013Z,13.60
2023-04-22T17:35:19.676Z,13.60
2023-04-22T17:37:51.731Z,13.40
2023-04-22T17:40:24.878Z,13.30
2023-04-22T17:42:56.163Z,13.30
2023-04-22T17:45:28.217Z,13.50
2023-04-22T17:47:59.775Z,13.40
2023-04-22T17:50:31.603Z,13.30
2023-04-22T17:53:02.916Z,13.40
2023-04-22T17:55:36.358Z,13.60
2023-04-22T17:58:08.736Z,13.60
2023-04-22T18:00:40.729Z,13.90
2023-04-22T18:03:11.703Z,13.80
2023-04-22T18:05:44.593Z,14.00
2023-04-22T18:08:16.040Z,13.90
2023-04-22T18:10:49.437Z,13.70
2023-04-22T18:13:21.425Z,13.90
2023-04-22T18:15:52.526Z,13.90
2023-04-22T18:18:24.024Z,14.00
2023-04-22T18:20:55.703Z,13.80
2023-04-22T18:23:27.398Z,13.80
2023-04-22T18:26:02.014Z,14.00
2023-04-22T18:28:33.081Z,14.30
2023-04-22T18:31:04.038Z,14.50
2023-04-22T18:33:35.980Z,14.40
2023-04-22T18:36:07.299Z,14.60
2023-04-22T18:38:39.774Z,14.80
2023-04-22T18:41:14.662Z,14.90
2023-04-22T18:43:47.952Z,14.80
2023-04-22T18:46:18.978Z,15.10
2023-04-22T18:48:50.109Z,15.10
2023-04-22T18:51:22.065Z,14.90
2023-04-22T18:53:53.756Z,14.60
2023-04-22T18:56:26.756Z,14.40
2023-04-22T18:58:57.905Z,14.40
2023-04-22T19:01:28.990Z,14.40
2023-04-22T19:04:02.463Z,14.10
2023-04-22T19:06:33.398Z,14.30
2023-04-22T19:09:06.041Z,14.40
2023-04-22T19:11:38.813Z,14.60
2023-04-22T19:14:10.723Z,14.70
2023-04-22T19:16:41.596Z,14.70
2023-04-22T19:19:12.983Z,14.80
2023-04-22T19:21:44.124Z,14.50
2023-04-22T19:24:17.151Z,14.70
2023-04-22T19:26:49.757Z,14.60
2023-04-22T19:29:20.659Z,14.70
2023-04-22T19:31:51.960Z,15.00
2023-04-22T19:34:23.235Z,15.10
2023-04-22T19:36:55.080Z,15.20
2023-04-22T19:39:26.487Z,15.50
2023-04-22T19:41:59.070Z,15.50
2023-04-22T19:44:30.320Z,15.50
2023-04-22T19:47:01.842Z,15.10
2023-04-22T19:49:35.088Z,15.00
2023-04-22T19:52:06.560Z,14.80
2023-04-22T19:54:38.412Z,14.70
2023-04-22T19:57:13.020Z,14.40
2023-04-22T19:59:44.184Z,14.20
2023-04-22T20:02:15.877Z,14.30
2023-04-22T20:04:47.127Z,14.30
2023-04-22T20:07:18.322Z,14.20
2023-04-22T20:09:51.151Z,14.20
2023-04-22T20:12:23.904Z,14.40
2023-04-22T20:14:55.835Z,14.70
2023-04-22T20:17:27.466Z,15.00
2023-04-22T20:20:00.022Z,14.60
2023-04-22T20:22:31.794Z,14.70
2023-04-22T20:25:06.224Z,15.10
2023-04-22T20:27:40.028Z,15.20
2023-04-22T20:30:12.594Z,15.00
2023-04-22T20:32:44.053Z,15.10
2023-04-22T20:35:17.963Z,15.20
2023-04-22T20:37:48.972Z,15.60
2023-04-22T20:42:54.957Z,16.20
2023-04-22T20:45:26.075Z,16.20
2023-04-22T20:47:58.870Z,16.10
2023-04-22T20:50:34.080Z,16.00
2023-04-22T20:53:06.617Z,16.40
2023-04-22T20:55:37.556Z,16.40
2023-04-22T20:58:10.839Z,16.80
2023-04-22T21:00:42.271Z,17.00
2023-04-22T21:03:14.292Z,17.20
2023-04-22T21:05:46.910Z,17.20
2023-04-22T21:08:25.675Z,17.10
2023-04-22T21:10:59.737Z,17.30
2023-04-22T21:13:33.456Z,17.30
2023-04-22T21:16:07.285Z,17.50
2023-04-22T21:18:41.385Z,17.60
2023-04-22T21:21:14.659Z,17.10
2023-04-22T21:23:46.924Z,17.00
2023-04-22T21:26:18.568Z,17.10
2023-04-22T21:28:52.609Z,17.00
2023-04-22T21:31:24.471Z,17.00
2023-04-22T21:33:56.764Z,16.80
2023-04-22T21:36:29.302Z,17.00
2023-04-22T21:39:00.905Z,17.10
2023-04-22T21:41:32.558Z,17.30
2023-04-22T21:44:05.017Z,17.30
2023-04-22T21:46:36.434Z,17.40
2023-04-22T21:49:07.927Z,17.40
2023-04-22T21:51:39.873Z,17.50
2023-04-22T21:54:11.621Z,17.60
2023-04-22T21:56:43.547Z,17.60
2023-04-22T21:59:17.183Z,17.80
2023-04-22T22:01:48.861Z,17.80
2023-04-22T22:04:20.171Z,18.00
2023-04-22T22:06:52.045Z,18.10
2023-04-22T22:09:24.052Z,18.00
2023-04-22T22:11:56.001Z,17.50
2023-04-22T22:14:29.241Z,17.40
2023-04-22T22:17:00.121Z,17.70
2023-04-22T22:19:34.104Z,17.80
2023-04-22T22:22:05.128Z,17.90
2023-04-22T22:24:37.188Z,17.70
2023-04-22T22:27:09.153Z,17.60
2023-04-22T22:29:42.542Z,17.50
2023-04-22T22:32:14.365Z,17.40
2023-04-22T22:34:45.379Z,17.20
2023-04-22T22:37:16.841Z,17.60
2023-04-22T22:39:48.363Z,17.90
2023-04-22T22:42:19.612Z,17.50
2023-04-22T22:44:54.065Z,17.10
2023-04-22T22:47:26.061Z,17.40
2023-04-22T22:49:57.498Z,17.70
2023-04-22T22:52:29.175Z,17.90
2023-04-22T22:55:00.600Z,18.00
2023-04-22T22:57:32.045Z,18.00
2023-04-22T23:00:06.610Z,17.40
2023-04-22T23:02:39.530Z,17.40
2023-04-22T23:05:13.199Z,17.60
2023-04-22T23:07:44.297Z,17.90
2023-04-22T23:10:15.537Z,18.30
2023-04-22T23:12:46.962Z,18.60
2023-04-22T23:15:20.351Z,18.50
2023-04-22T23:17:53.999Z,18.90
2023-04-22T23:20:26.929Z,19.40
2023-04-22T23:22:59.286Z,19.20
2023-04-22T23:25:31.667Z,19.20
2023-04-22T23:28:03.548Z,19.30
2023-04-22T23:30:38.509Z,18.70
2023-04-22T23:33:12.448Z,18.20
2023-04-22T23:35:46.027Z,17.90
2023-04-22T23:38:17.759Z,17.80
2023-04-22T23:40:49.168Z,17.40
2023-04-22T23:43:20.687Z,17.20
2023-04-22T23:45:53.309Z,17.10
2023-04-22T23:48:24.454Z,17.00
2023-04-22T23:50:56.577Z,17.00
2023-04-22T23:53:28.179Z,17.00
2023-04-22T23:56:00.148Z,16.90
2023-04-22T23:58:31.994Z,16.90
